sensor_id;sensor_type;location;lat;lon;timestamp;pressure;altitude;pressure_sealevel;temperature;humidity
70909;BME280;58554;52.006;5.926;2023-01-19T00:01:28;99173.94;;;0.38;91.80
70909;BME280;58554;52.006;5.926;2023-01-19T00:03:54;99184.25;;;0.39;91.47
70909;BME280;58554;52.006;5.926;2023-01-19T00:06:21;99173.78;;;0.41;91.86
70909;BME280;58554;52.006;5.926;2023-01-19T00:08:47;99171.19;;;0.41;91.86
70909;BME280;58554;52.006;5.926;2023-01-19T00:11:14;99167.59;;;0.44;92.18
70909;BME280;58554;52.006;5.926;2023-01-19T00:13:44;99175.34;;;0.45;91.91
70909;BME280;58554;52.006;5.926;2023-01-19T00:16:11;99170.97;;;0.46;92.58
70909;BME280;58554;52.006;5.926;2023-01-19T00:18:37;99181.34;;;0.47;92.43
70909;BME280;58554;52.006;5.926;2023-01-19T00:21:04;99176.06;;;0.49;92.64
70909;BME280;58554;52.006;5.926;2023-01-19T00:23:31;99179.47;;;0.51;92.16
70909;BME280;58554;52.006;5.926;2023-01-19T00:25:57;99174.19;;;0.52;91.97
70909;BME280;58554;52.006;5.926;2023-01-19T00:28:24;99170.69;;;0.53;91.83
70909;BME280;58554;52.006;5.926;2023-01-19T00:30:53;99172.38;;;0.54;91.96
70909;BME280;58554;52.006;5.926;2023-01-19T00:33:19;99170.69;;;0.53;92.29
70909;BME280;58554;52.006;5.926;2023-01-19T00:35:50;99165.53;;;0.52;92.66
70909;BME280;58554;52.006;5.926;2023-01-19T00:38:17;99167.28;;;0.51;92.71
70909;BME280;58554;52.006;5.926;2023-01-19T00:40:44;99160.31;;;0.52;91.90
70909;BME280;58554;52.006;5.926;2023-01-19T00:43:10;99170.69;;;0.53;91.93
70909;BME280;58554;52.006;5.926;2023-01-19T00:45:37;99169.78;;;0.54;91.89
70909;BME280;58554;52.006;5.926;2023-01-19T00:48:06;99167.88;;;0.58;92.59
70909;BME280;58554;52.006;5.926;2023-01-19T00:50:33;99159.97;;;0.61;92.11
70909;BME280;58554;52.006;5.926;2023-01-19T00:53:00;99167.56;;;0.66;92.03
70909;BME280;58554;52.006;5.926;2023-01-19T00:55:27;99158.06;;;0.65;92.40
70909;BME280;58554;52.006;5.926;2023-01-19T00:57:54;99163.34;;;0.63;92.51
70909;BME280;58554;52.006;5.926;2023-01-19T01:00:21;99163.34;;;0.63;92.44
70909;BME280;58554;52.006;5.926;2023-01-19T01:02:50;99164.22;;;0.62;92.56
70909;BME280;58554;52.006;5.926;2023-01-19T01:05:21;99156.44;;;0.62;92.61
70909;BME280;58554;52.006;5.926;2023-01-19T01:07:48;99160.00;;;0.59;92.74
70909;BME280;58554;52.006;5.926;2023-01-19T01:10:18;99151.50;;;0.56;93.24
70909;BME280;58554;52.006;5.926;2023-01-19T01:12:47;99159.44;;;0.53;93.14
70909;BME280;58554;52.006;5.926;2023-01-19T01:15:15;99161.19;;;0.52;92.80
70909;BME280;58554;52.006;5.926;2023-01-19T01:17:42;99152.63;;;0.50;92.97
70909;BME280;58554;52.006;5.926;2023-01-19T01:20:14;99154.44;;;0.48;93.40
70909;BME280;58554;52.006;5.926;2023-01-19T01:22:46;99156.94;;;0.50;93.21
70909;BME280;58554;52.006;5.926;2023-01-19T01:25:17;99158.59;;;0.52;92.83
70909;BME280;58554;52.006;5.926;2023-01-19T01:27:46;99156.94;;;0.50;93.38
70909;BME280;58554;52.006;5.926;2023-01-19T01:30:14;99162.94;;;0.52;93.00
70909;BME280;58554;52.006;5.926;2023-01-19T01:32:41;99152.63;;;0.50;92.79
70909;BME280;58554;52.006;5.926;2023-01-19T01:35:08;99159.44;;;0.53;92.32
70909;BME280;58554;52.006;5.926;2023-01-19T01:37:36;99158.72;;;0.49;92.99
70909;BME280;58554;52.006;5.926;2023-01-19T01:40:09;99153.56;;;0.48;93.23
70909;BME280;58554;52.006;5.926;2023-01-19T01:42:38;99141.44;;;0.48;93.27
70909;BME280;58554;52.006;5.926;2023-01-19T01:45:13;99149.22;;;0.48;93.15
70909;BME280;58554;52.006;5.926;2023-01-19T01:47:58;99143.06;;;0.51;93.07
70909;BME280;58554;52.006;5.926;2023-01-19T01:50:33;99147.28;;;0.53;93.30
70909;BME280;58554;52.006;5.926;2023-01-19T01:53:07;99145.59;;;0.52;93.46
70909;BME280;58554;52.006;5.926;2023-01-19T01:55:44;99140.31;;;0.54;93.13
70909;BME280;58554;52.006;5.926;2023-01-19T01:58:15;99143.84;;;0.53;92.77
70909;BME280;58554;52.006;5.926;2023-01-19T02:00:42;99138.75;;;0.50;92.29
70909;BME280;58554;52.006;5.926;2023-01-19T02:03:08;99144.16;;;0.45;92.37
70909;BME280;58554;52.006;5.926;2023-01-19T02:05:35;99145.38;;;0.36;92.19
70909;BME280;58554;52.006;5.926;2023-01-19T02:08:06;99156.03;;;0.30;92.14
70909;BME280;58554;52.006;5.926;2023-01-19T02:10:42;99172.00;;;0.21;91.94
70909;BME280;58554;52.006;5.926;2023-01-19T02:13:10;99172.25;;;0.15;92.43
70909;BME280;58554;52.006;5.926;2023-01-19T02:15:39;99164.75;;;0.07;92.56
70909;BME280;58554;52.006;5.926;2023-01-19T02:18:06;99152.06;;;-0.01;92.91
70909;BME280;58554;52.006;5.926;2023-01-19T02:20:35;99157.34;;;-0.02;92.81
70909;BME280;58554;52.006;5.926;2023-01-19T02:23:06;99163.50;;;-0.05;93.15
70909;BME280;58554;52.006;5.926;2023-01-19T02:25:46;99161.88;;;-0.07;93.38
70909;BME280;58554;52.006;5.926;2023-01-19T02:28:14;99159.31;;;-0.09;93.13
70909;BME280;58554;52.006;5.926;2023-01-19T02:30:42;99155.09;;;-0.11;92.74
70909;BME280;58554;52.006;5.926;2023-01-19T02:33:09;99157.94;;;-0.17;93.18
70909;BME280;58554;52.006;5.926;2023-01-19T02:35:37;99176.31;;;-0.22;92.96
70909;BME280;58554;52.006;5.926;2023-01-19T02:38:06;99169.53;;;-0.26;92.80
70909;BME280;58554;52.006;5.926;2023-01-19T02:40:35;99165.38;;;-0.30;92.53
70909;BME280;58554;52.006;5.926;2023-01-19T02:43:08;99167.31;;;-0.35;93.10
70909;BME280;58554;52.006;5.926;2023-01-19T02:45:35;99166.56;;;-0.39;92.92
70909;BME280;58554;52.006;5.926;2023-01-19T02:48:04;99164.03;;;-0.41;92.83
70909;BME280;58554;52.006;5.926;2023-01-19T02:50:40;99165.84;;;-0.43;92.63
70909;BME280;58554;52.006;5.926;2023-01-19T02:53:37;99175.38;;;-0.43;92.61
70909;BME280;58554;52.006;5.926;2023-01-19T02:56:33;99165.00;;;-0.43;92.68
70909;BME280;58554;52.006;5.926;2023-01-19T02:59:21;99171.03;;;-0.43;92.70
70909;BME280;58554;52.006;5.926;2023-01-19T03:02:16;99166.75;;;-0.44;92.91
70909;BME280;58554;52.006;5.926;2023-01-19T03:05:09;99179.75;;;-0.44;93.19
70909;BME280;58554;52.006;5.926;2023-01-19T03:07:54;99160.69;;;-0.44;93.09
70909;BME280;58554;52.006;5.926;2023-01-19T03:10:32;99177.19;;;-0.45;93.51
70909;BME280;58554;52.006;5.926;2023-01-19T03:13:15;99179.75;;;-0.44;93.85
70909;BME280;58554;52.006;5.926;2023-01-19T03:15:51;99181.41;;;-0.43;93.95
70909;BME280;58554;52.006;5.926;2023-01-19T03:18:25;99196.09;;;-0.42;93.86
70909;BME280;58554;52.006;5.926;2023-01-19T03:20:57;99196.03;;;-0.40;94.16
70909;BME280;58554;52.006;5.926;2023-01-19T03:23:31;99188.22;;;-0.40;93.97
70909;BME280;58554;52.006;5.926;2023-01-19T03:26:02;99202.09;;;-0.40;93.75
70909;BME280;58554;52.006;5.926;2023-01-19T03:28:35;99212.47;;;-0.40;93.42
70909;BME280;58554;52.006;5.926;2023-01-19T03:31:13;99209.88;;;-0.40;93.08
70909;BME280;58554;52.006;5.926;2023-01-19T03:33:45;99208.06;;;-0.37;92.98
70909;BME280;58554;52.006;5.926;2023-01-19T03:36:19;99206.31;;;-0.37;92.43
70909;BME280;58554;52.006;5.926;2023-01-19T03:38:51;99211.50;;;-0.37;92.63
70909;BME280;58554;52.006;5.926;2023-01-19T03:41:21;99209.75;;;-0.36;92.90
70909;BME280;58554;52.006;5.926;2023-01-19T03:43:52;99214.06;;;-0.35;92.90
70909;BME280;58554;52.006;5.926;2023-01-19T03:46:23;99219.25;;;-0.35;92.75
70909;BME280;58554;52.006;5.926;2023-01-19T03:48:51;99220.13;;;-0.36;92.80
70909;BME280;58554;52.006;5.926;2023-01-19T03:51:19;99218.31;;;-0.34;92.64
70909;BME280;58554;52.006;5.926;2023-01-19T03:53:47;99217.41;;;-0.33;92.65
70909;BME280;58554;52.006;5.926;2023-01-19T03:56:17;99220.75;;;-0.30;92.39
70909;BME280;58554;52.006;5.926;2023-01-19T03:58:45;99229.31;;;-0.28;92.39
70909;BME280;58554;52.006;5.926;2023-01-19T04:01:12;99229.22;;;-0.25;92.15
70909;BME280;58554;52.006;5.926;2023-01-19T04:03:42;99232.44;;;-0.18;92.13
70909;BME280;58554;52.006;5.926;2023-01-19T04:06:09;99226.31;;;-0.17;92.18
70909;BME280;58554;52.006;5.926;2023-01-19T04:08:35;99234.00;;;-0.14;92.37
70909;BME280;58554;52.006;5.926;2023-01-19T04:11:02;99225.19;;;-0.10;92.32
70909;BME280;58554;52.006;5.926;2023-01-19T04:13:29;99230.16;;;-0.04;91.95
70909;BME280;58554;52.006;5.926;2023-01-19T04:15:58;99227.38;;;0.01;92.26
70909;BME280;58554;52.006;5.926;2023-01-19T04:18:27;99222.00;;;0.06;92.27
70909;BME280;58554;52.006;5.926;2023-01-19T04:20:58;99213.16;;;0.10;92.33
70909;BME280;58554;52.006;5.926;2023-01-19T04:23:25;99217.34;;;0.14;92.42
70909;BME280;58554;52.006;5.926;2023-01-19T04:25:56;99228.47;;;0.17;92.31
70909;BME280;58554;52.006;5.926;2023-01-19T04:28:23;99224.91;;;0.20;92.15
70909;BME280;58554;52.006;5.926;2023-01-19T04:30:50;99223.03;;;0.24;92.18
70909;BME280;58554;52.006;5.926;2023-01-19T04:33:16;99219.59;;;0.23;92.35
70909;BME280;58554;52.006;5.926;2023-01-19T04:35:43;99230.81;;;0.24;92.30
70909;BME280;58554;52.006;5.926;2023-01-19T04:38:13;99245.63;;;0.21;92.74
70909;BME280;58554;52.006;5.926;2023-01-19T04:40:39;99247.50;;;0.18;92.57
70909;BME280;58554;52.006;5.926;2023-01-19T04:43:06;99249.31;;;0.16;92.45
70909;BME280;58554;52.006;5.926;2023-01-19T04:45:32;99252.09;;;0.11;92.69
70909;BME280;58554;52.006;5.926;2023-01-19T04:47:59;99249.59;;;0.08;92.77
70909;BME280;58554;52.006;5.926;2023-01-19T04:50:25;99258.31;;;0.07;92.87
70909;BME280;58554;52.006;5.926;2023-01-19T04:52:52;99250.56;;;0.06;92.71
70909;BME280;58554;52.006;5.926;2023-01-19T04:55:21;99256.59;;;0.06;92.35
70909;BME280;58554;52.006;5.926;2023-01-19T04:57:48;99260.91;;;0.07;92.11
70909;BME280;58554;52.006;5.926;2023-01-19T05:00:16;99254.00;;;0.06;92.36
70909;BME280;58554;52.006;5.926;2023-01-19T05:02:43;99254.94;;;0.05;92.32
70909;BME280;58554;52.006;5.926;2023-01-19T05:05:10;99260.97;;;0.06;92.31
70909;BME280;58554;52.006;5.926;2023-01-19T05:07:37;99267.00;;;0.06;91.96
70909;BME280;58554;52.006;5.926;2023-01-19T05:10:05;99271.31;;;0.07;92.20
70909;BME280;58554;52.006;5.926;2023-01-19T05:12:35;99275.59;;;0.08;91.91
70909;BME280;58554;52.006;5.926;2023-01-19T05:15:02;99277.31;;;0.09;91.82
70909;BME280;58554;52.006;5.926;2023-01-19T05:17:29;99267.75;;;0.10;92.12
70909;BME280;58554;52.006;5.926;2023-01-19T05:19:55;99272.09;;;0.09;92.09
70909;BME280;58554;52.006;5.926;2023-01-19T05:22:22;99274.69;;;0.09;92.32
70909;BME280;58554;52.006;5.926;2023-01-19T05:24:48;99274.69;;;0.09;92.46
70909;BME280;58554;52.006;5.926;2023-01-19T05:27:15;99275.53;;;0.10;92.21
70909;BME280;58554;52.006;5.926;2023-01-19T05:29:44;99275.53;;;0.10;92.06
70909;BME280;58554;52.006;5.926;2023-01-19T05:32:11;99279.84;;;0.11;91.95
70909;BME280;58554;52.006;5.926;2023-01-19T05:34:37;99288.47;;;0.11;92.02
70909;BME280;58554;52.006;5.926;2023-01-19T05:37:04;99287.56;;;0.12;92.08
70909;BME280;58554;52.006;5.926;2023-01-19T05:39:30;99288.44;;;0.13;91.90
70909;BME280;58554;52.006;5.926;2023-01-19T05:41:57;99296.16;;;0.14;92.09
70909;BME280;58554;52.006;5.926;2023-01-19T05:44:23;99295.25;;;0.15;92.08
70909;BME280;58554;52.006;5.926;2023-01-19T05:46:52;99303.91;;;0.16;92.03
70909;BME280;58554;52.006;5.926;2023-01-19T05:49:19;99303.78;;;0.19;91.84
70909;BME280;58554;52.006;5.926;2023-01-19T05:51:45;99309.84;;;0.19;91.96
70909;BME280;58554;52.006;5.926;2023-01-19T05:54:13;99302.88;;;0.20;91.96
70909;BME280;58554;52.006;5.926;2023-01-19T05:56:40;99304.59;;;0.21;92.08
70909;BME280;58554;52.006;5.926;2023-01-19T05:59:07;99311.50;;;0.20;91.99
70909;BME280;58554;52.006;5.926;2023-01-19T06:01:35;99314.91;;;0.23;91.94
70909;BME280;58554;52.006;5.926;2023-01-19T06:04:04;99320.09;;;0.23;92.01
70909;BME280;58554;52.006;5.926;2023-01-19T06:06:31;99319.22;;;0.24;92.05
70909;BME280;58554;52.006;5.926;2023-01-19T06:08:57;99314.84;;;0.24;92.15
70909;BME280;58554;52.006;5.926;2023-01-19T06:11:24;99327.84;;;0.24;92.01
70909;BME280;58554;52.006;5.926;2023-01-19T06:13:50;99319.25;;;0.22;92.09
70909;BME280;58554;52.006;5.926;2023-01-19T06:16:17;99327.06;;;0.22;92.21
70909;BME280;58554;52.006;5.926;2023-01-19T06:18:46;99329.66;;;0.22;91.95
70909;BME280;58554;52.006;5.926;2023-01-19T06:21:16;99330.50;;;0.23;91.98
70909;BME280;58554;52.006;5.926;2023-01-19T06:23:42;99331.38;;;0.23;92.24
70909;BME280;58554;52.006;5.926;2023-01-19T06:26:09;99345.03;;;0.28;92.31
70909;BME280;58554;52.006;5.926;2023-01-19T06:28:35;99350.03;;;0.33;92.23
70909;BME280;58554;52.006;5.926;2023-01-19T06:31:02;99345.63;;;0.35;92.38
70909;BME280;58554;52.006;5.926;2023-01-19T06:33:28;99347.25;;;0.37;92.06
70909;BME280;58554;52.006;5.926;2023-01-19T06:35:55;99348.00;;;0.41;92.11
70909;BME280;58554;52.006;5.926;2023-01-19T06:38:24;99360.81;;;0.46;92.35
70909;BME280;58554;52.006;5.926;2023-01-19T06:40:52;99350.38;;;0.47;92.24
70909;BME280;58554;52.006;5.926;2023-01-19T06:43:21;99361.50;;;0.51;92.19
70909;BME280;58554;52.006;5.926;2023-01-19T06:45:48;99364.88;;;0.53;92.18
70909;BME280;58554;52.006;5.926;2023-01-19T06:48:14;99371.78;;;0.54;92.15
70909;BME280;58554;52.006;5.926;2023-01-19T06:50:44;99370.88;;;0.55;92.13
70909;BME280;58554;52.006;5.926;2023-01-19T06:53:11;99379.56;;;0.54;92.43
70909;BME280;58554;52.006;5.926;2023-01-19T06:55:41;99384.00;;;0.52;92.38
70909;BME280;58554;52.006;5.926;2023-01-19T06:58:07;99391.78;;;0.52;92.35
70909;BME280;58554;52.006;5.926;2023-01-19T07:00:35;99391.88;;;0.50;92.29
70909;BME280;58554;52.006;5.926;2023-01-19T07:03:01;99404.00;;;0.50;92.63
70909;BME280;58554;52.006;5.926;2023-01-19T07:05:28;99407.41;;;0.52;92.36
70909;BME280;58554;52.006;5.926;2023-01-19T07:07:55;99411.75;;;0.51;92.08
70909;BME280;58554;52.006;5.926;2023-01-19T07:10:23;99410.91;;;0.51;92.30
70909;BME280;58554;52.006;5.926;2023-01-19T07:12:52;99419.56;;;0.51;92.42
70909;BME280;58554;52.006;5.926;2023-01-19T07:15:21;99429.91;;;0.53;92.07
70909;BME280;58554;52.006;5.926;2023-01-19T07:17:48;99427.31;;;0.53;92.47
70909;BME280;58554;52.006;5.926;2023-01-19T07:20:15;99432.50;;;0.53;92.32
70909;BME280;58554;52.006;5.926;2023-01-19T07:22:42;99442.00;;;0.54;92.45
70909;BME280;58554;52.006;5.926;2023-01-19T07:25:09;99441.84;;;0.58;92.35
70909;BME280;58554;52.006;5.926;2023-01-19T07:27:35;99443.53;;;0.59;92.67
70909;BME280;58554;52.006;5.926;2023-01-19T07:30:06;99453.84;;;0.63;92.60
70909;BME280;58554;52.006;5.926;2023-01-19T07:32:33;99455.47;;;0.65;92.33
70909;BME280;58554;52.006;5.926;2023-01-19T07:35:00;99460.59;;;0.67;92.11
70909;BME280;58554;52.006;5.926;2023-01-19T07:37:26;99460.50;;;0.70;92.25
70909;BME280;58554;52.006;5.926;2023-01-19T07:39:53;99458.66;;;0.72;92.37
70909;BME280;58554;52.006;5.926;2023-01-19T07:42:19;99468.06;;;0.76;92.45
70909;BME280;58554;52.006;5.926;2023-01-19T07:44:46;99474.09;;;0.76;92.12
70909;BME280;58554;52.006;5.926;2023-01-19T07:47:15;99482.69;;;0.78;92.20
70909;BME280;58554;52.006;5.926;2023-01-19T07:49:42;99487.94;;;0.77;92.01
70909;BME280;58554;52.006;5.926;2023-01-19T07:52:08;99487.13;;;0.76;92.14
70909;BME280;58554;52.006;5.926;2023-01-19T07:54:35;99493.34;;;0.72;92.13
70909;BME280;58554;52.006;5.926;2023-01-19T07:57:02;99498.72;;;0.68;92.22
70909;BME280;58554;52.006;5.926;2023-01-19T07:59:28;99499.72;;;0.64;92.12
70909;BME280;58554;52.006;5.926;2023-01-19T08:01:55;99509.31;;;0.63;92.43
70909;BME280;58554;52.006;5.926;2023-01-19T08:04:24;99505.91;;;0.61;92.17
70909;BME280;58554;52.006;5.926;2023-01-19T08:06:51;99511.19;;;0.58;92.21
70909;BME280;58554;52.006;5.926;2023-01-19T08:09:18;99518.22;;;0.56;92.25
70909;BME280;58554;52.006;5.926;2023-01-19T08:11:44;99524.38;;;0.53;92.22
70909;BME280;58554;52.006;5.926;2023-01-19T08:14:11;99528.69;;;0.54;91.97
70909;BME280;58554;52.006;5.926;2023-01-19T08:16:38;99533.94;;;0.53;92.26
70909;BME280;58554;52.006;5.926;2023-01-19T08:19:04;99535.69;;;0.52;92.58
70909;BME280;58554;52.006;5.926;2023-01-19T08:21:33;99533.09;;;0.52;92.52
70909;BME280;58554;52.006;5.926;2023-01-19T08:24:00;99539.19;;;0.51;92.53
70909;BME280;58554;52.006;5.926;2023-01-19T08:26:28;99539.25;;;0.50;92.57
70909;BME280;58554;52.006;5.926;2023-01-19T08:28:58;99552.25;;;0.50;92.83
70909;BME280;58554;52.006;5.926;2023-01-19T08:31:27;99555.72;;;0.50;92.85
70909;BME280;58554;52.006;5.926;2023-01-19T08:33:54;99563.34;;;0.55;92.75
70909;BME280;58554;52.006;5.926;2023-01-19T08:36:21;99558.94;;;0.57;92.60
70909;BME280;58554;52.006;5.926;2023-01-19T08:38:50;99564.09;;;0.58;92.92
70909;BME280;58554;52.006;5.926;2023-01-19T08:41:17;99563.97;;;0.61;92.84
70909;BME280;58554;52.006;5.926;2023-01-19T08:43:44;99561.38;;;0.61;92.88
70909;BME280;58554;52.006;5.926;2023-01-19T08:46:11;99576.00;;;0.64;92.95
70909;BME280;58554;52.006;5.926;2023-01-19T08:48:38;99570.75;;;0.66;92.83
70909;BME280;58554;52.006;5.926;2023-01-19T08:51:05;99571.59;;;0.66;92.83
70909;BME280;58554;52.006;5.926;2023-01-19T08:53:31;99575.06;;;0.67;92.95
70909;BME280;58554;52.006;5.926;2023-01-19T08:56:01;99582.84;;;0.67;92.60
70909;BME280;58554;52.006;5.926;2023-01-19T08:58:27;99591.44;;;0.69;92.46
70909;BME280;58554;52.006;5.926;2023-01-19T09:00:54;99588.00;;;0.68;92.54
70909;BME280;58554;52.006;5.926;2023-01-19T09:03:21;99585.38;;;0.70;92.41
70909;BME280;58554;52.006;5.926;2023-01-19T09:05:48;99590.56;;;0.70;92.42
70909;BME280;58554;52.006;5.926;2023-01-19T09:08:15;99594.06;;;0.69;92.44
70909;BME280;58554;52.006;5.926;2023-01-19T09:10:46;99594.06;;;0.69;92.34
70909;BME280;58554;52.006;5.926;2023-01-19T09:13:17;99595.78;;;0.70;92.61
70909;BME280;58554;52.006;5.926;2023-01-19T09:15:45;99593.13;;;0.71;92.71
70909;BME280;58554;52.006;5.926;2023-01-19T09:18:13;99591.31;;;0.73;92.54
70909;BME280;58554;52.006;5.926;2023-01-19T09:20:43;99606.84;;;0.75;92.91
70909;BME280;58554;52.006;5.926;2023-01-19T09:23:12;99603.31;;;0.77;92.73
70909;BME280;58554;52.006;5.926;2023-01-19T09:25:43;99610.09;;;0.81;93.01
70909;BME280;58554;52.006;5.926;2023-01-19T09:28:15;99609.97;;;0.85;92.95
70909;BME280;58554;52.006;5.926;2023-01-19T09:30:43;99617.69;;;0.88;93.37
70909;BME280;58554;52.006;5.926;2023-01-19T09:33:12;99614.88;;;0.94;93.24
70909;BME280;58554;52.006;5.926;2023-01-19T09:35:41;99615.59;;;0.97;93.47
70909;BME280;58554;52.006;5.926;2023-01-19T09:38:10;99623.28;;;1.00;93.25
70909;BME280;58554;52.006;5.926;2023-01-19T09:40:41;99619.72;;;1.03;93.23
70909;BME280;58554;52.006;5.926;2023-01-19T09:43:20;99617.91;;;1.05;93.06
70909;BME280;58554;52.006;5.926;2023-01-19T09:46:00;99620.34;;;1.10;92.98
70909;BME280;58554;52.006;5.926;2023-01-19T09:48:38;99627.13;;;1.14;92.83
70909;BME280;58554;52.006;5.926;2023-01-19T09:51:14;99623.50;;;1.18;92.98
70909;BME280;58554;52.006;5.926;2023-01-19T09:53:50;99629.34;;;1.25;93.03
70909;BME280;58554;52.006;5.926;2023-01-19T09:56:22;99628.41;;;1.27;92.96
70909;BME280;58554;52.006;5.926;2023-01-19T09:58:52;99623.91;;;1.31;92.73
70909;BME280;58554;52.006;5.926;2023-01-19T10:01:32;99635.91;;;1.35;92.80
70909;BME280;58554;52.006;5.926;2023-01-19T10:04:24;99640.78;;;1.44;92.64
70909;BME280;58554;52.006;5.926;2023-01-19T10:07:01;99635.09;;;1.56;92.88
70909;BME280;58554;52.006;5.926;2023-01-19T10:09:39;99637.09;;;1.72;92.82
70909;BME280;58554;52.006;5.926;2023-01-19T10:12:36;99639.09;;;1.87;92.88
70909;BME280;58554;52.006;5.926;2023-01-19T10:15:23;99640.31;;;2.00;92.72
70909;BME280;58554;52.006;5.926;2023-01-19T10:18:04;99641.56;;;2.12;92.84
70909;BME280;58554;52.006;5.926;2023-01-19T10:20:39;99651.44;;;2.26;92.90
70909;BME280;58554;52.006;5.926;2023-01-19T10:23:23;99647.59;;;2.35;92.93
70909;BME280;58554;52.006;5.926;2023-01-19T10:26:03;99657.59;;;2.45;92.70
70909;BME280;58554;52.006;5.926;2023-01-19T10:28:35;99653.69;;;2.56;92.64
70909;BME280;58554;52.006;5.926;2023-01-19T10:31:07;99657.53;;;2.68;92.90
70909;BME280;58554;52.006;5.926;2023-01-19T10:33:34;99649.19;;;2.80;92.95
70909;BME280;58554;52.006;5.926;2023-01-19T10:36:09;99658.31;;;2.90;92.58
70909;BME280;58554;52.006;5.926;2023-01-19T10:38:42;99654.66;;;2.94;92.33
70909;BME280;58554;52.006;5.926;2023-01-19T10:41:14;99656.50;;;2.92;91.95
70909;BME280;58554;52.006;5.926;2023-01-19T10:43:45;99651.47;;;2.88;91.81
70909;BME280;58554;52.006;5.926;2023-01-19T10:46:30;99651.75;;;2.81;91.99
70909;BME280;58554;52.006;5.926;2023-01-19T10:49:02;99652.00;;;2.75;91.83
70909;BME280;58554;52.006;5.926;2023-01-19T10:51:30;99654.94;;;2.68;91.35
70909;BME280;58554;52.006;5.926;2023-01-19T10:53:59;99656.88;;;2.62;91.47
70909;BME280;58554;52.006;5.926;2023-01-19T10:56:33;99655.25;;;2.60;91.55
70909;BME280;58554;52.006;5.926;2023-01-19T10:59:03;99656.22;;;2.57;91.11
70909;BME280;58554;52.006;5.926;2023-01-19T11:01:34;99663.16;;;2.58;91.28
70909;BME280;58554;52.006;5.926;2023-01-19T11:04:19;99661.50;;;2.56;91.04
70909;BME280;58554;52.006;5.926;2023-01-19T11:06:52;99652.97;;;2.52;91.27
70909;BME280;58554;52.006;5.926;2023-01-19T11:09:39;99662.63;;;2.50;91.40
70909;BME280;58554;52.006;5.926;2023-01-19T11:12:15;99667.06;;;2.48;91.30
70909;BME280;58554;52.006;5.926;2023-01-19T11:14:45;99665.34;;;2.47;91.41
70909;BME280;58554;52.006;5.926;2023-01-19T11:17:23;99673.97;;;2.49;91.43
70909;BME280;58554;52.006;5.926;2023-01-19T11:19:53;99675.59;;;2.52;91.68
70909;BME280;58554;52.006;5.926;2023-01-19T11:22:25;99674.31;;;2.62;92.00
70909;BME280;58554;52.006;5.926;2023-01-19T11:24:59;99674.56;;;2.76;91.96
70909;BME280;58554;52.006;5.926;2023-01-19T11:27:27;99674.38;;;2.81;91.28
70909;BME280;58554;52.006;5.926;2023-01-19T11:30:03;99677.13;;;2.78;90.79
70909;BME280;58554;52.006;5.926;2023-01-19T11:32:36;99672.75;;;2.78;91.07
70909;BME280;58554;52.006;5.926;2023-01-19T11:35:29;99669.34;;;2.76;91.09
70909;BME280;58554;52.006;5.926;2023-01-19T11:38:16;99675.50;;;2.75;90.97
70909;BME280;58554;52.006;5.926;2023-01-19T11:40:51;99674.72;;;2.73;91.20
70909;BME280;58554;52.006;5.926;2023-01-19T11:43:21;99678.09;;;2.75;91.22
70909;BME280;58554;52.006;5.926;2023-01-19T11:45:50;99673.72;;;2.76;91.09
70909;BME280;58554;52.006;5.926;2023-01-19T11:48:24;99675.09;;;2.84;91.43
70909;BME280;58554;52.006;5.926;2023-01-19T11:50:56;99673.84;;;2.93;90.87
70909;BME280;58554;52.006;5.926;2023-01-19T11:53:31;99673.00;;;2.93;90.63
70909;BME280;58554;52.006;5.926;2023-01-19T11:56:01;99668.72;;;2.92;90.26
70909;BME280;58554;52.006;5.926;2023-01-19T11:58:37;99676.53;;;2.92;90.16
70909;BME280;58554;52.006;5.926;2023-01-19T12:01:10;99678.06;;;2.96;90.08
70909;BME280;58554;52.006;5.926;2023-01-19T12:03:49;99666.47;;;3.03;89.84
70909;BME280;58554;52.006;5.926;2023-01-19T12:06:24;99677.16;;;3.17;90.24
70909;BME280;58554;52.006;5.926;2023-01-19T12:08:56;99672.28;;;3.29;90.70
70909;BME280;58554;52.006;5.926;2023-01-19T12:11:35;99675.00;;;3.46;90.66
70909;BME280;58554;52.006;5.926;2023-01-19T12:14:06;99666.50;;;3.60;90.56
70909;BME280;58554;52.006;5.926;2023-01-19T12:16:56;99666.88;;;3.71;90.45
70909;BME280;58554;52.006;5.926;2023-01-19T12:19:48;99666.66;;;3.76;89.84
70909;BME280;58554;52.006;5.926;2023-01-19T12:22:19;99670.03;;;3.78;89.81
70909;BME280;58554;52.006;5.926;2023-01-19T12:24:51;99666.44;;;3.80;90.09
70909;BME280;58554;52.006;5.926;2023-01-19T12:27:30;99668.81;;;3.85;90.28
70909;BME280;58554;52.006;5.926;2023-01-19T12:30:09;99671.91;;;3.93;90.32
70909;BME280;58554;52.006;5.926;2023-01-19T12:32:44;99660.59;;;4.29;91.15
70909;BME280;58554;52.006;5.926;2023-01-19T12:38:37;99664.94;;;6.13;92.43
70909;BME280;58554;52.006;5.926;2023-01-19T12:41:23;99666.47;;;6.91;91.29
70909;BME280;58554;52.006;5.926;2023-01-19T12:44:15;99664.25;;;7.57;89.50
70909;BME280;58554;52.006;5.926;2023-01-19T12:46:50;99657.41;;;8.23;89.92
70909;BME280;58554;52.006;5.926;2023-01-19T12:49:27;99663.25;;;8.81;86.80
70909;BME280;58554;52.006;5.926;2023-01-19T12:52:16;99654.50;;;9.19;83.07
70909;BME280;58554;52.006;5.926;2023-01-19T12:54:57;99655.44;;;9.31;81.68
70909;BME280;58554;52.006;5.926;2023-01-19T12:57:46;99653.34;;;9.36;77.97
70909;BME280;58554;52.006;5.926;2023-01-19T13:00:34;99658.34;;;9.65;78.77
70909;BME280;58554;52.006;5.926;2023-01-19T13:09:38;99653.06;;;10.26;78.18
70909;BME280;58554;52.006;5.926;2023-01-19T13:12:22;99660.81;;;9.42;77.90
70909;BME280;58554;52.006;5.926;2023-01-19T13:14:50;99663.81;;;8.59;77.11
70909;BME280;58554;52.006;5.926;2023-01-19T13:17:46;99664.69;;;7.78;78.96
70909;BME280;58554;52.006;5.926;2023-01-19T13:20:25;99670.91;;;7.20;80.69
70909;BME280;58554;52.006;5.926;2023-01-19T13:23:21;99670.09;;;6.75;82.05
70909;BME280;58554;52.006;5.926;2023-01-19T13:26:04;99673.28;;;6.35;82.58
70909;BME280;58554;52.006;5.926;2023-01-19T13:28:37;99675.88;;;6.05;82.81
70909;BME280;58554;52.006;5.926;2023-01-19T13:31:07;99674.34;;;5.85;84.00
70909;BME280;58554;52.006;5.926;2023-01-19T13:33:40;99681.47;;;5.67;83.29
70909;BME280;58554;52.006;5.926;2023-01-19T13:36:21;99682.19;;;5.53;84.07
70909;BME280;58554;52.006;5.926;2023-01-19T13:38:50;99685.66;;;5.38;82.08
70909;BME280;58554;52.006;5.926;2023-01-19T13:41:22;99686.06;;;5.30;83.69